Linz Airport LOWL

Flugplatz Daten

Name: Linz Airport

Ident: LOWL

Lat: 48,23320007

Long: 14,1875

Platzhöhe: 978 ft

IataCode: LNZ

City: Linz

Homepage: http://www.flughafen-linz.at/

Metar

2022/08/10 19:20
LOWL 101920Z AUTO 07003KT CAVOK 21/10 Q1023 NOSIG

Taf

2022/08/10 18:24
TAF LOWL 101715Z 1018/1118 09005KT CAVOK TX26/1114Z TN14/1104Z
BECMG 1106/1108 09010KT

Webcams

Airport
Gewünschte Webcam nicht vorhanden? Dann fügen Sie eine hinzu. Sie wird dann so schnell wie möglich freigeschaltet
Url: Title: